Time;durP1;ratioP1;P1;durP2;ratioP2;P2;SDS_P1;SDS_P2;PMS_P1;PMS_P2;Temp;Humidity;BMP_temperature;BMP_pressure;BME280_temperature;BME280_humidity;BME280_pressure;Samples;Min_cycle;Max_cycle;Signal;HPM_P1;HPM_P2
2022/12/02 00:01:44;;;;;;;;;;;8.50;99.90;;;;;;5013413;28;20259;-77
2022/12/02 00:04:25;;;;;;;;;;;8.50;99.90;;;;;;5013422;28;19909;-77
2022/12/02 00:06:51;;;;;;;;;;;8.50;99.90;;;;;;5013384;28;19979;-77
2022/12/02 00:09:19;;;;;;;;;;;8.50;99.90;;;;;;5013312;28;19913;-77
2022/12/02 00:11:45;;;;;;;;;;;8.50;99.90;;;;;;5012843;28;19913;-77
2022/12/02 00:14:15;;;;;;;;;;;8.60;99.90;;;;;;5012710;28;20385;-77
2022/12/02 00:16:41;;;;;;;;;;;8.50;99.90;;;;;;5011044;28;19933;-77
2022/12/02 00:19:06;;;;;;;;;;;8.50;99.90;;;;;;5010984;28;19910;-76
2022/12/02 00:21:33;;;;;;;;;;;8.50;99.90;;;;;;5012472;28;19916;-76
2022/12/02 00:23:59;;;;;;;;;;;8.50;99.90;;;;;;5012376;28;19910;-76
2022/12/02 00:26:24;;;;;;;;;;;8.50;99.90;;;;;;5012046;28;20021;-76
2022/12/02 00:28:50;;;;;;;;;;;8.50;99.90;;;;;;5012069;28;20018;-76
2022/12/02 00:31:15;;;;;;;;;;;8.50;99.90;;;;;;5012593;28;20405;-77
2022/12/02 00:33:41;;;;;;;;;;;8.50;99.90;;;;;;5012070;28;20008;-80
2022/12/02 00:36:06;;;;;;;;;;;8.50;99.90;;;;;;5012263;28;19914;-76
2022/12/02 00:38:32;;;;;;;;;;;8.50;99.90;;;;;;5012511;28;19909;-76
2022/12/02 00:40:58;;;;;;;;;;;8.40;99.90;;;;;;5011244;28;19976;-77
2022/12/02 00:48:52;;;;;;;;;;;8.30;99.90;;;;;;5011686;28;19983;-78
2022/12/02 00:51:17;;;;;;;;;;;8.20;99.90;;;;;;5012446;28;19913;-77
2022/12/02 00:53:43;;;;;;;;;;;8.10;99.90;;;;;;5011504;28;19910;-78
2022/12/02 00:56:09;;;;;;;;;;;8.10;99.90;;;;;;5012172;28;19942;-77
2022/12/02 00:58:34;;;;;;;;;;;8.10;99.90;;;;;;5012090;28;19909;-81
2022/12/02 01:01:00;;;;;;;;;;;8.10;99.90;;;;;;5012095;28;20347;-77
2022/12/02 01:03:26;;;;;;;;;;;8.10;99.90;;;;;;5012335;28;19962;-78
2022/12/02 01:05:51;;;;;;;;;;;8.10;99.90;;;;;;5011318;28;19921;-79
2022/12/02 01:08:17;;;;;;;;;;;8.10;99.90;;;;;;5012191;28;20016;-78
2022/12/02 01:10:42;;;;;;;;;;;8.10;99.90;;;;;;5010743;28;20054;-80
2022/12/02 01:13:08;;;;;;;;;;;8.10;99.90;;;;;;5012096;28;19945;-80
2022/12/02 01:15:33;;;;;;;;;;;8.10;99.90;;;;;;5011694;28;19996;-78
2022/12/02 01:17:59;;;;;;;;;;;8.10;99.90;;;;;;5010151;28;19910;-79
2022/12/02 01:20:25;;;;;;;;;;;8.10;99.90;;;;;;5011934;28;20379;-79
2022/12/02 01:22:50;;;;;;;;;;;8.10;99.90;;;;;;5011381;28;19958;-79
2022/12/02 01:25:16;;;;;;;;;;;8.10;99.90;;;;;;5012121;28;19950;-79
2022/12/02 01:27:41;;;;;;;;;;;8.10;99.90;;;;;;5011439;28;20197;-80
2022/12/02 01:30:07;;;;;;;;;;;8.00;99.90;;;;;;5011399;28;19991;-78
2022/12/02 01:32:33;;;;;;;;;;;8.00;99.90;;;;;;5010533;28;19916;-79
2022/12/02 01:34:59;;;;;;;;;;;8.00;99.90;;;;;;5011393;28;20248;-80
2022/12/02 01:37:24;;;;;;;;;;;8.00;99.90;;;;;;5011971;28;19917;-79
2022/12/02 01:39:50;;;;;;;;;;;8.00;99.90;;;;;;5010258;28;20454;-79
2022/12/02 01:42:15;;;;;;;;;;;8.00;99.90;;;;;;5011407;28;20011;-79
2022/12/02 01:44:41;;;;;;;;;;;8.00;99.90;;;;;;5011214;28;19914;-79
2022/12/02 01:47:07;;;;;;;;;;;8.00;99.90;;;;;;5021728;28;20031;-79
2022/12/02 01:49:32;;;;;;;;;;;8.00;99.90;;;;;;5033662;28;19926;-80
2022/12/02 01:51:58;;;;;;;;;;;8.00;99.90;;;;;;5034858;28;20001;-79
2022/12/02 01:54:24;;;;;;;;;;;8.00;99.90;;;;;;5034924;28;19910;-79
2022/12/02 01:56:49;;;;;;;;;;;8.00;99.90;;;;;;5033195;28;19912;-80
2022/12/02 01:59:17;;;;;;;;;;;8.00;99.90;;;;;;5028203;28;19909;-78
2022/12/02 02:01:43;;;;;;;;;;;8.00;99.90;;;;;;5015167;28;19992;-78
2022/12/02 02:04:09;;;;;;;;;;;8.00;99.90;;;;;;5011141;28;19995;-78
2022/12/02 02:06:40;;;;;;;;;;;8.00;99.90;;;;;;5011402;28;19910;-78
2022/12/02 02:09:09;;;;;;;;;;;8.00;99.90;;;;;;5010951;28;19922;-78
2022/12/02 02:11:35;;;;;;;;;;;8.10;99.90;;;;;;5011278;28;19920;-78
2022/12/02 02:14:03;;;;;;;;;;;8.10;99.90;;;;;;5011013;28;19909;-78
2022/12/02 02:16:28;;;;;;;;;;;8.10;99.90;;;;;;5011356;28;19921;-79
2022/12/02 02:18:54;;;;;;;;;;;8.10;99.90;;;;;;5010593;28;19983;-78
2022/12/02 02:21:22;;;;;;;;;;;8.10;99.90;;;;;;5011119;28;20019;-78
2022/12/02 02:23:48;;;;;;;;;;;8.10;99.90;;;;;;5010813;28;20335;-79
2022/12/02 02:26:13;;;;;;;;;;;8.10;99.90;;;;;;5009881;28;19918;-78
2022/12/02 02:28:39;;;;;;;;;;;8.10;99.90;;;;;;5011024;28;19965;-78
2022/12/02 02:31:05;;;;;;;;;;;8.10;99.90;;;;;;5010710;28;19921;-79
2022/12/02 02:33:32;;;;;;;;;;;8.10;99.90;;;;;;5011130;28;19944;-78
2022/12/02 02:35:58;;;;;;;;;;;8.10;99.90;;;;;;5010425;28;19932;-78
2022/12/02 02:38:25;;;;;;;;;;;8.10;99.90;;;;;;5011203;28;19909;-79
2022/12/02 02:40:51;;;;;;;;;;;8.10;99.90;;;;;;5010318;28;19914;-78
2022/12/02 02:43:18;;;;;;;;;;;8.10;99.90;;;;;;5010910;28;20271;-79
2022/12/02 02:45:44;;;;;;;;;;;8.10;99.90;;;;;;5010650;28;20000;-83
2022/12/02 02:48:11;;;;;;;;;;;8.10;99.90;;;;;;5010792;28;19977;-80
2022/12/02 02:50:38;;;;;;;;;;;8.10;99.90;;;;;;5012723;28;20377;-79
2022/12/02 02:53:04;;;;;;;;;;;8.10;99.90;;;;;;5014132;28;19974;-79
2022/12/02 02:55:30;;;;;;;;;;;8.00;99.90;;;;;;5014523;28;20349;-79
2022/12/02 02:58:05;;;;;;;;;;;8.00;99.90;;;;;;5013859;28;19915;-78
2022/12/02 03:00:31;;;;;;;;;;;8.00;99.90;;;;;;5014896;28;19913;-78
2022/12/02 03:02:56;;;;;;;;;;;8.00;99.90;;;;;;5012234;28;19910;-80
2022/12/02 03:05:22;;;;;;;;;;;8.00;99.90;;;;;;5014069;28;20037;-79
2022/12/02 03:07:48;;;;;;;;;;;7.90;99.90;;;;;;5013842;28;19957;-79
2022/12/02 03:10:14;;;;;;;;;;;7.90;99.90;;;;;;5013867;28;20302;-79
2022/12/02 03:12:39;;;;;;;;;;;7.90;99.90;;;;;;5014311;28;19921;-79
2022/12/02 03:15:06;;;;;;;;;;;7.90;99.90;;;;;;5013921;28;20521;-78
2022/12/02 03:17:31;;;;;;;;;;;7.80;99.90;;;;;;5014315;28;20013;-78
2022/12/02 03:19:57;;;;;;;;;;;7.80;99.90;;;;;;5013590;28;20015;-79
2022/12/02 03:22:23;;;;;;;;;;;7.80;99.90;;;;;;5014196;28;20290;-78
2022/12/02 03:24:49;;;;;;;;;;;7.70;99.90;;;;;;5013261;28;20279;-79
2022/12/02 03:27:14;;;;;;;;;;;7.80;99.90;;;;;;5014329;28;20362;-78
2022/12/02 03:29:40;;;;;;;;;;;7.70;99.90;;;;;;5013564;28;19941;-78
2022/12/02 03:32:09;;;;;;;;;;;7.70;99.90;;;;;;5013280;28;19916;-79
2022/12/02 03:34:35;;;;;;;;;;;7.70;99.90;;;;;;5013890;28;19909;-78
2022/12/02 03:37:01;;;;;;;;;;;7.70;99.90;;;;;;5011602;28;19924;-78
2022/12/02 03:39:26;;;;;;;;;;;7.60;99.90;;;;;;5012061;28;19910;-78
2022/12/02 03:41:52;;;;;;;;;;;7.60;99.90;;;;;;5013022;28;19910;-79
2022/12/02 03:44:18;;;;;;;;;;;7.60;99.90;;;;;;5013382;28;20008;-78
2022/12/02 03:46:43;;;;;;;;;;;7.50;99.90;;;;;;5013482;28;19910;-78
2022/12/02 03:49:10;;;;;;;;;;;7.50;99.90;;;;;;5012555;28;19972;-78
2022/12/02 03:51:36;;;;;;;;;;;7.50;99.90;;;;;;5013460;28;20019;-78
2022/12/02 03:54:01;;;;;;;;;;;7.50;99.90;;;;;;5013214;28;20007;-78
2022/12/02 03:56:27;;;;;;;;;;;7.50;99.90;;;;;;5013671;28;19909;-79
2022/12/02 03:58:53;;;;;;;;;;;7.50;99.90;;;;;;5012491;28;19932;-78
2022/12/02 04:01:19;;;;;;;;;;;7.40;99.90;;;;;;5012891;28;19910;-78
2022/12/02 04:03:44;;;;;;;;;;;7.40;99.90;;;;;;5012963;28;19979;-78
2022/12/02 04:06:10;;;;;;;;;;;7.30;99.90;;;;;;5011474;28;20320;-78
2022/12/02 04:08:36;;;;;;;;;;;7.30;99.90;;;;;;5012927;28;19920;-79
2022/12/02 04:11:02;;;;;;;;;;;7.30;99.90;;;;;;5012818;28;19917;-79
2022/12/02 04:13:27;;;;;;;;;;;7.20;99.90;;;;;;5013142;28;19917;-78
2022/12/02 04:15:53;;;;;;;;;;;7.20;99.90;;;;;;5012941;28;19988;-80
2022/12/02 04:18:19;;;;;;;;;;;7.20;99.90;;;;;;5011599;28;19910;-79
2022/12/02 04:20:44;;;;;;;;;;;7.10;99.90;;;;;;5012497;28;20413;-78
2022/12/02 04:23:10;;;;;;;;;;;7.20;99.90;;;;;;5012507;28;19992;-78
2022/12/02 04:25:35;;;;;;;;;;;7.10;99.90;;;;;;5012676;28;19909;-78
2022/12/02 04:28:01;;;;;;;;;;;7.10;99.90;;;;;;5012514;28;19913;-78
2022/12/02 04:30:26;;;;;;;;;;;7.00;99.90;;;;;;5012574;28;19984;-79
2022/12/02 04:32:52;;;;;;;;;;;7.00;99.90;;;;;;5012862;28;19917;-79
2022/12/02 04:35:18;;;;;;;;;;;7.00;99.90;;;;;;5012632;28;19917;-78
2022/12/02 04:37:43;;;;;;;;;;;7.00;99.90;;;;;;5012680;28;19959;-78
2022/12/02 04:40:09;;;;;;;;;;;7.00;99.90;;;;;;5012225;28;20008;-78
2022/12/02 04:42:35;;;;;;;;;;;6.90;99.90;;;;;;5012070;28;20052;-78
2022/12/02 04:45:01;;;;;;;;;;;6.90;99.90;;;;;;5012384;28;19913;-78
2022/12/02 04:47:26;;;;;;;;;;;6.80;99.90;;;;;;5012394;28;19909;-78
2022/12/02 04:49:52;;;;;;;;;;;6.80;99.90;;;;;;5011875;28;19924;-82
2022/12/02 04:52:18;;;;;;;;;;;6.80;99.90;;;;;;5011878;28;19940;-79
2022/12/02 04:54:43;;;;;;;;;;;6.80;99.90;;;;;;5010831;28;19948;-78
2022/12/02 04:57:09;;;;;;;;;;;6.80;99.90;;;;;;5011469;28;19909;-78
2022/12/02 04:59:34;;;;;;;;;;;6.70;99.90;;;;;;5010856;28;19996;-78
2022/12/02 05:02:00;;;;;;;;;;;6.70;99.90;;;;;;5011541;28;19910;-77
2022/12/02 05:04:25;;;;;;;;;;;6.60;99.90;;;;;;5012019;28;20328;-78
2022/12/02 05:06:51;;;;;;;;;;;6.60;99.90;;;;;;5011810;28;19913;-82
2022/12/02 05:09:17;;;;;;;;;;;6.50;99.90;;;;;;5011663;28;19918;-78
2022/12/02 05:11:42;;;;;;;;;;;6.50;99.90;;;;;;5011923;28;19917;-78
2022/12/02 05:14:08;;;;;;;;;;;6.50;99.90;;;;;;5011256;28;19909;-78
2022/12/02 05:16:33;;;;;;;;;;;6.50;99.90;;;;;;5011427;28;19917;-78
2022/12/02 05:18:59;;;;;;;;;;;6.40;99.90;;;;;;5011235;28;19910;-78
2022/12/02 05:21:24;;;;;;;;;;;6.40;99.90;;;;;;5011896;28;20083;-78
2022/12/02 05:23:50;;;;;;;;;;;6.40;99.90;;;;;;5011565;28;19914;-78
2022/12/02 05:26:15;;;;;;;;;;;6.40;99.90;;;;;;5011299;28;19920;-78
2022/12/02 05:28:41;;;;;;;;;;;6.40;99.90;;;;;;5011293;28;19921;-78
2022/12/02 05:31:07;;;;;;;;;;;6.40;99.90;;;;;;5010822;28;19952;-78
2022/12/02 05:33:32;;;;;;;;;;;6.30;99.90;;;;;;5011577;28;19917;-78
2022/12/02 05:35:58;;;;;;;;;;;6.40;99.90;;;;;;5011012;28;20370;-79
2022/12/02 05:38:23;;;;;;;;;;;6.30;99.90;;;;;;5011516;28;19909;-78
2022/12/02 05:40:51;;;;;;;;;;;6.30;99.90;;;;;;5010037;28;19979;-78
2022/12/02 05:43:17;;;;;;;;;;;6.20;99.90;;;;;;5010773;28;19909;-78
2022/12/02 05:45:43;;;;;;;;;;;6.30;99.90;;;;;;5011278;28;19910;-78
2022/12/02 05:48:10;;;;;;;;;;;6.30;99.90;;;;;;5010540;28;20039;-78
2022/12/02 05:50:36;;;;;;;;;;;6.20;99.90;;;;;;5011665;28;19996;-78
2022/12/02 05:53:02;;;;;;;;;;;6.20;99.90;;;;;;5010885;28;20007;-79
2022/12/02 05:55:29;;;;;;;;;;;6.20;99.90;;;;;;5011615;28;20316;-79
2022/12/02 05:57:58;;;;;;;;;;;6.20;99.90;;;;;;5011034;28;20396;-78
2022/12/02 06:00:23;;;;;;;;;;;6.20;99.90;;;;;;5011477;28;19984;-78
2022/12/02 06:03:00;;;;;;;;;;;6.20;99.90;;;;;;5011480;28;20232;-78
2022/12/02 06:05:27;;;;;;;;;;;6.20;99.90;;;;;;5011402;28;19916;-78
2022/12/02 06:07:54;;;;;;;;;;;6.20;99.90;;;;;;5010316;28;20000;-78
2022/12/02 06:10:23;;;;;;;;;;;6.10;99.90;;;;;;5011285;28;19917;-79
2022/12/02 06:12:49;;;;;;;;;;;6.10;99.90;;;;;;5011454;28;19909;-78
2022/12/02 06:15:15;;;;;;;;;;;6.10;99.90;;;;;;5010936;28;19916;-78
2022/12/02 06:17:41;;;;;;;;;;;6.10;99.90;;;;;;5011401;28;19913;-78
2022/12/02 06:20:11;;;;;;;;;;;6.10;99.90;;;;;;5011003;28;19929;-78
2022/12/02 06:22:37;;;;;;;;;;;6.10;99.90;;;;;;5011165;28;19909;-78
2022/12/02 06:25:05;;;;;;;;;;;6.10;99.90;;;;;;5011355;28;20056;-79
2022/12/02 06:27:31;;;;;;;;;;;6.10;99.90;;;;;;5014817;28;19920;-79
2022/12/02 06:29:58;;;;;;;;;;;6.00;99.90;;;;;;5014901;28;19953;-81
2022/12/02 06:32:28;;;;;;;;;;;6.00;99.90;;;;;;5015428;28;19916;-78
2022/12/02 06:34:53;;;;;;;;;;;6.00;99.90;;;;;;5015545;28;20004;-78
2022/12/02 06:37:23;;;;;;;;;;;6.00;99.90;;;;;;5015523;28;20006;-79
2022/12/02 06:39:52;;;;;;;;;;;5.90;99.90;;;;;;5015302;28;20000;-79
2022/12/02 06:42:20;;;;;;;;;;;5.90;99.90;;;;;;5015129;28;19956;-79
2022/12/02 06:45:04;;;;;;;;;;;5.90;99.90;;;;;;5014844;28;20338;-78
2022/12/02 06:47:29;;;;;;;;;;;5.80;99.90;;;;;;5017427;28;19921;-80
2022/12/02 06:49:55;;;;;;;;;;;5.80;99.90;;;;;;5035990;28;19980;-78
2022/12/02 06:52:21;;;;;;;;;;;5.80;99.90;;;;;;5037176;28;19914;-79
2022/12/02 06:54:48;;;;;;;;;;;5.80;99.90;;;;;;5037550;28;20003;-79
2022/12/02 06:57:15;;;;;;;;;;;5.70;99.90;;;;;;5036645;28;19953;-80
2022/12/02 06:59:42;;;;;;;;;;;5.70;99.90;;;;;;5037189;28;19914;-79
2022/12/02 07:02:28;;;;;;;;;;;5.70;99.90;;;;;;5036420;28;19945;-79
2022/12/02 07:04:54;;;;;;;;;;;5.70;99.90;;;;;;5036638;28;19909;-79
2022/12/02 07:07:21;;;;;;;;;;;5.60;99.90;;;;;;5029515;28;19964;-79
2022/12/02 07:09:48;;;;;;;;;;;5.60;99.90;;;;;;5020011;28;19971;-79
2022/12/02 07:12:15;;;;;;;;;;;5.50;99.90;;;;;;5021794;28;19914;-79
2022/12/02 07:14:45;;;;;;;;;;;5.50;99.90;;;;;;5018511;28;19960;-78
2022/12/02 07:17:19;;;;;;;;;;;5.50;99.90;;;;;;5018378;28;19920;-79
2022/12/02 07:19:45;;;;;;;;;;;5.50;99.90;;;;;;5019252;28;19920;-79
2022/12/02 07:22:28;;;;;;;;;;;5.50;99.90;;;;;;5016998;28;20004;-79
2022/12/02 07:24:54;;;;;;;;;;;5.50;99.90;;;;;;5016649;28;19913;-79
2022/12/02 07:27:22;;;;;;;;;;;5.50;99.90;;;;;;5015802;28;19927;-79
2022/12/02 07:29:48;;;;;;;;;;;5.50;99.90;;;;;;5016294;28;19914;-79
2022/12/02 07:32:14;;;;;;;;;;;5.50;99.90;;;;;;5013868;28;19909;-78
2022/12/02 07:34:39;;;;;;;;;;;5.50;99.90;;;;;;5015621;28;19937;-78
2022/12/02 07:37:05;;;;;;;;;;;5.40;99.90;;;;;;5015455;28;19915;-80
2022/12/02 07:39:30;;;;;;;;;;;5.40;99.90;;;;;;5015032;28;19925;-79
2022/12/02 07:41:56;;;;;;;;;;;5.40;99.90;;;;;;5015460;28;20332;-79
2022/12/02 07:44:21;;;;;;;;;;;5.40;99.90;;;;;;5014841;28;19916;-79
2022/12/02 07:46:47;;;;;;;;;;;5.30;99.90;;;;;;5015734;28;19916;-79
2022/12/02 07:49:12;;;;;;;;;;;5.30;99.90;;;;;;5014931;28;19935;-78
2022/12/02 07:51:38;;;;;;;;;;;5.30;99.90;;;;;;5015613;28;19913;-79
2022/12/02 07:54:04;;;;;;;;;;;5.30;99.90;;;;;;5014496;28;19916;-82
2022/12/02 07:56:29;;;;;;;;;;;5.30;99.90;;;;;;5014998;28;20019;-78
2022/12/02 07:58:55;;;;;;;;;;;5.20;99.90;;;;;;5015251;28;19920;-78
2022/12/02 08:01:20;;;;;;;;;;;5.20;99.90;;;;;;5014584;28;20313;-78
2022/12/02 08:03:46;;;;;;;;;;;5.20;99.90;;;;;;5014852;28;20008;-78
2022/12/02 08:06:11;;;;;;;;;;;5.20;99.90;;;;;;5014388;28;19977;-78
2022/12/02 08:08:37;;;;;;;;;;;5.20;99.90;;;;;;5014444;28;19914;-77
2022/12/02 08:11:03;;;;;;;;;;;5.20;99.90;;;;;;5014121;28;19997;-78
2022/12/02 08:13:28;;;;;;;;;;;5.20;99.90;;;;;;5014016;28;20457;-77
2022/12/02 08:15:54;;;;;;;;;;;5.20;99.90;;;;;;5014215;28;19916;-78
2022/12/02 08:18:19;;;;;;;;;;;5.20;99.90;;;;;;5012503;28;19988;-77
2022/12/02 08:20:45;;;;;;;;;;;5.20;99.90;;;;;;5014168;28;19909;-78
2022/12/02 08:23:10;;;;;;;;;;;5.20;99.90;;;;;;5013672;28;19968;-78
2022/12/02 08:25:36;;;;;;;;;;;5.20;99.90;;;;;;5014253;28;19942;-78
2022/12/02 08:28:01;;;;;;;;;;;5.20;99.90;;;;;;5013887;28;19910;-78
2022/12/02 08:30:27;;;;;;;;;;;5.20;99.90;;;;;;5013540;28;19925;-78
2022/12/02 08:32:52;;;;;;;;;;;5.10;99.90;;;;;;5014018;28;19909;-78
2022/12/02 08:35:18;;;;;;;;;;;5.00;99.90;;;;;;5013474;28;19945;-78
2022/12/02 08:37:43;;;;;;;;;;;5.00;99.90;;;;;;5014051;28;19936;-78
2022/12/02 08:40:09;;;;;;;;;;;5.00;99.90;;;;;;5013448;28;20419;-79
2022/12/02 08:42:35;;;;;;;;;;;5.00;99.90;;;;;;5013489;28;19909;-77
2022/12/02 08:45:01;;;;;;;;;;;5.10;99.90;;;;;;5013939;28;19917;-78
2022/12/02 08:47:26;;;;;;;;;;;5.00;99.90;;;;;;5012579;28;19925;-78
2022/12/02 08:49:52;;;;;;;;;;;5.00;99.90;;;;;;5013492;28;19917;-78
2022/12/02 08:52:18;;;;;;;;;;;5.10;99.90;;;;;;5013162;28;19910;-78
2022/12/02 08:54:44;;;;;;;;;;;5.20;99.90;;;;;;5013118;28;20252;-78
2022/12/02 08:57:10;;;;;;;;;;;5.20;99.90;;;;;;5012886;28;19937;-79
2022/12/02 08:59:36;;;;;;;;;;;5.30;99.90;;;;;;5013547;28;20260;-78
2022/12/02 09:02:01;;;;;;;;;;;5.40;99.90;;;;;;5013291;28;19956;-78
2022/12/02 09:04:27;;;;;;;;;;;5.40;99.90;;;;;;5012893;28;19975;-78
2022/12/02 09:06:52;;;;;;;;;;;5.50;99.90;;;;;;5011846;28;19988;-77
2022/12/02 09:09:18;;;;;;;;;;;5.60;99.90;;;;;;5012721;28;19917;-77
2022/12/02 09:11:43;;;;;;;;;;;5.70;99.90;;;;;;5013008;28;20327;-77
2022/12/02 09:14:09;;;;;;;;;;;5.70;99.90;;;;;;5012961;28;19910;-80
2022/12/02 09:16:35;;;;;;;;;;;5.70;99.90;;;;;;5012755;28;19929;-76
2022/12/02 09:19:00;;;;;;;;;;;5.80;99.90;;;;;;5012835;28;20220;-77
2022/12/02 09:21:26;;;;;;;;;;;5.90;99.90;;;;;;5012398;28;19909;-77
2022/12/02 09:23:51;;;;;;;;;;;5.90;99.90;;;;;;5012948;28;19909;-77
2022/12/02 09:26:17;;;;;;;;;;;6.00;99.90;;;;;;5012858;28;19910;-77
2022/12/02 09:28:43;;;;;;;;;;;6.10;99.90;;;;;;5012711;28;19965;-77
2022/12/02 09:31:09;;;;;;;;;;;6.10;99.90;;;;;;5012226;28;20002;-77
2022/12/02 09:33:34;;;;;;;;;;;6.10;99.90;;;;;;5011934;28;19953;-77
2022/12/02 09:36:00;;;;;;;;;;;6.20;99.90;;;;;;5013155;28;20300;-77
2022/12/02 09:38:30;;;;;;;;;;;6.20;99.90;;;;;;5010957;28;19983;-77
2022/12/02 09:40:56;;;;;;;;;;;6.20;99.90;;;;;;5012107;28;19914;-76
2022/12/02 09:43:22;;;;;;;;;;;6.30;99.90;;;;;;5011849;28;19913;-76
2022/12/02 09:45:47;;;;;;;;;;;6.30;99.90;;;;;;5012186;28;19910;-76
2022/12/02 09:48:13;;;;;;;;;;;6.30;99.90;;;;;;5011596;28;19914;-80
2022/12/02 09:50:39;;;;;;;;;;;6.30;99.90;;;;;;5011701;28;19909;-76
2022/12/02 09:53:05;;;;;;;;;;;6.30;99.90;;;;;;5010893;28;19933;-76
2022/12/02 09:55:31;;;;;;;;;;;6.30;99.90;;;;;;5011258;28;19920;-79
2022/12/02 09:58:04;;;;;;;;;;;6.40;99.90;;;;;;5011476;28;19909;-78
2022/12/02 10:00:30;;;;;;;;;;;6.40;99.90;;;;;;5013189;28;19953;-77
2022/12/02 10:02:56;;;;;;;;;;;6.50;99.90;;;;;;5014374;28;19913;-78
2022/12/02 10:05:23;;;;;;;;;;;6.50;99.90;;;;;;5015270;28;19920;-78
2022/12/02 10:07:50;;;;;;;;;;;6.50;99.90;;;;;;5015667;28;19909;-78
2022/12/02 10:10:18;;;;;;;;;;;6.60;99.90;;;;;;5015192;28;20316;-79
2022/12/02 10:12:43;;;;;;;;;;;6.60;99.90;;;;;;5015124;28;19982;-78
2022/12/02 10:15:13;;;;;;;;;;;6.60;99.90;;;;;;5014103;28;20329;-79
2022/12/02 10:17:39;;;;;;;;;;;6.70;99.90;;;;;;5013649;28;20055;-79
2022/12/02 10:20:05;;;;;;;;;;;6.70;99.90;;;;;;5015617;28;19910;-79
2022/12/02 10:22:30;;;;;;;;;;;6.70;99.90;;;;;;5015095;28;19932;-79
2022/12/02 10:24:57;;;;;;;;;;;6.80;99.90;;;;;;5015240;28;19951;-78
2022/12/02 10:27:23;;;;;;;;;;;6.80;99.90;;;;;;5014785;28;19909;-79
2022/12/02 10:29:48;;;;;;;;;;;6.80;99.90;;;;;;5014772;28;20580;-79
2022/12/02 10:32:21;;;;;;;;;;;6.80;99.90;;;;;;5015111;28;19929;-82
2022/12/02 10:35:01;;;;;;;;;;;6.80;99.90;;;;;;5015005;28;19948;-76
2022/12/02 10:37:28;;;;;;;;;;;6.80;99.90;;;;;;5014598;28;19917;-79
2022/12/02 10:40:13;;;;;;;;;;;6.90;99.90;;;;;;5015184;28;19910;-79
2022/12/02 10:42:39;;;;;;;;;;;6.90;99.90;;;;;;5014329;28;20343;-79
2022/12/02 10:45:23;;;;;;;;;;;7.00;99.90;;;;;;5015034;28;19981;-79
2022/12/02 10:47:49;;;;;;;;;;;7.00;99.90;;;;;;5014439;28;19909;-79
2022/12/02 10:50:16;;;;;;;;;;;7.00;99.90;;;;;;5014401;28;20018;-83
2022/12/02 10:52:58;;;;;;;;;;;7.10;99.90;;;;;;5014605;28;19920;-79
2022/12/02 10:55:25;;;;;;;;;;;7.20;99.90;;;;;;5013896;28;19916;-80
2022/12/02 10:57:51;;;;;;;;;;;7.20;99.90;;;;;;5014348;28;19913;-80
2022/12/02 11:00:19;;;;;;;;;;;7.20;99.90;;;;;;5014279;28;19920;-83
2022/12/02 11:02:46;;;;;;;;;;;7.30;99.90;;;;;;5014502;28;19910;-79
2022/12/02 11:05:19;;;;;;;;;;;7.40;99.90;;;;;;5014533;28;19919;-79
2022/12/02 11:07:52;;;;;;;;;;;7.50;99.90;;;;;;5014314;28;20346;-78
2022/12/02 11:10:19;;;;;;;;;;;7.60;99.90;;;;;;5014139;28;19914;-83
2022/12/02 11:12:47;;;;;;;;;;;7.80;99.90;;;;;;5013975;28;20008;-79
2022/12/02 11:15:40;;;;;;;;;;;7.90;99.90;;;;;;5014105;28;19909;-79
2022/12/02 11:18:06;;;;;;;;;;;8.10;99.90;;;;;;5011048;28;19913;-79
2022/12/02 11:20:36;;;;;;;;;;;8.30;99.90;;;;;;5013643;28;19916;-80
2022/12/02 11:23:02;;;;;;;;;;;8.40;99.90;;;;;;5014220;28;20008;-79
2022/12/02 11:25:43;;;;;;;;;;;8.50;99.90;;;;;;5013480;28;20024;-80
2022/12/02 11:28:17;;;;;;;;;;;8.60;99.90;;;;;;5014028;28;19992;-79
2022/12/02 11:30:44;;;;;;;;;;;8.70;99.90;;;;;;5013452;28;19928;-79
2022/12/02 11:33:11;;;;;;;;;;;8.80;99.90;;;;;;5014032;28;20008;-79
2022/12/02 11:35:55;;;;;;;;;;;8.90;99.90;;;;;;5013633;28;19952;-80
2022/12/02 11:38:24;;;;;;;;;;;8.90;99.90;;;;;;5012136;28;20012;-80
2022/12/02 11:40:50;;;;;;;;;;;9.00;99.90;;;;;;5013791;28;19950;-77
2022/12/02 11:43:34;;;;;;;;;;;9.10;99.90;;;;;;5013235;28;20302;-77
2022/12/02 11:45:59;;;;;;;;;;;9.10;99.90;;;;;;5013296;28;19913;-77
2022/12/02 11:48:25;;;;;;;;;;;9.20;99.90;;;;;;5013213;28;19955;-77
2022/12/02 11:50:51;;;;;;;;;;;9.20;99.90;;;;;;5014009;28;19913;-77
2022/12/02 11:53:17;;;;;;;;;;;9.20;99.90;;;;;;5013477;28;19910;-77
2022/12/02 11:55:45;;;;;;;;;;;9.30;99.90;;;;;;5013100;28;19909;-77
2022/12/02 11:58:22;;;;;;;;;;;9.30;99.90;;;;;;5013502;28;19914;-76
2022/12/02 12:01:06;;;;;;;;;;;9.40;99.90;;;;;;5013514;28;19963;-80
2022/12/02 12:03:32;;;;;;;;;;;9.50;99.90;;;;;;5012832;28;19914;-79
2022/12/02 12:06:04;;;;;;;;;;;9.60;99.90;;;;;;5012377;28;19916;-78
2022/12/02 12:08:30;;;;;;;;;;;9.60;99.90;;;;;;5013031;28;19929;-79
2022/12/02 12:11:15;;;;;;;;;;;9.60;99.90;;;;;;5014041;28;19920;-79
2022/12/02 12:14:01;;;;;;;;;;;9.60;99.90;;;;;;5011792;28;20058;-77
2022/12/02 12:16:27;;;;;;;;;;;9.70;99.90;;;;;;5014270;28;20011;-76
2022/12/02 12:18:53;;;;;;;;;;;9.70;99.90;;;;;;5013605;28;19932;-78
2022/12/02 12:21:31;;;;;;;;;;;9.90;99.90;;;;;;5011446;28;20077;-77
2022/12/02 12:24:15;;;;;;;;;;;9.90;99.90;;;;;;5013168;28;20323;-78
2022/12/02 12:26:41;;;;;;;;;;;10.00;99.90;;;;;;5012271;28;20382;-78
2022/12/02 12:29:07;;;;;;;;;;;10.00;99.90;;;;;;5019637;28;20367;-78
2022/12/02 12:31:32;;;;;;;;;;;10.10;99.90;;;;;;5035235;28;19943;-80
2022/12/02 12:33:58;;;;;;;;;;;10.20;99.90;;;;;;5036162;28;19917;-78
2022/12/02 12:36:23;;;;;;;;;;;10.20;99.90;;;;;;5035705;28;19902;-83
2022/12/02 12:38:49;;;;;;;;;;;10.20;99.90;;;;;;5035102;28;19909;-79
2022/12/02 12:41:14;;;;;;;;;;;10.20;99.90;;;;;;5035335;28;19897;-81
2022/12/02 12:43:40;;;;;;;;;;;10.20;99.90;;;;;;5034858;28;19924;-78
2022/12/02 12:46:06;;;;;;;;;;;10.20;99.90;;;;;;5024327;28;19910;-77
2022/12/02 12:48:31;;;;;;;;;;;10.20;99.90;;;;;;5012536;28;19920;-79
2022/12/02 12:50:57;;;;;;;;;;;10.10;99.90;;;;;;5012688;28;20251;-80
2022/12/02 12:53:22;;;;;;;;;;;10.30;99.90;;;;;;5012194;28;19913;-80
2022/12/02 12:55:48;;;;;;;;;;;10.30;99.90;;;;;;5012336;28;19909;-78
2022/12/02 12:58:14;;;;;;;;;;;10.20;99.90;;;;;;5012864;28;19909;-78
2022/12/02 13:00:40;;;;;;;;;;;10.20;99.90;;;;;;5012282;28;19913;-78
2022/12/02 13:03:05;;;;;;;;;;;10.30;99.90;;;;;;5012467;28;19940;-78
2022/12/02 13:05:31;;;;;;;;;;;10.30;99.90;;;;;;5011735;28;19972;-79
2022/12/02 13:07:56;;;;;;;;;;;10.30;99.90;;;;;;5012128;28;20355;-78
2022/12/02 13:10:22;;;;;;;;;;;10.30;99.90;;;;;;5012190;28;20062;-78
2022/12/02 13:12:50;;;;;;;;;;;10.30;99.90;;;;;;5010843;28;20224;-78
2022/12/02 13:15:15;;;;;;;;;;;10.30;99.90;;;;;;5011965;28;20278;-78
2022/12/02 13:17:41;;;;;;;;;;;10.30;99.90;;;;;;5011547;28;19936;-78
2022/12/02 13:20:07;;;;;;;;;;;10.30;99.90;;;;;;5011897;28;19913;-77
2022/12/02 13:22:32;;;;;;;;;;;10.30;99.90;;;;;;5011588;28;19916;-78
2022/12/02 13:24:58;;;;;;;;;;;10.30;99.90;;;;;;5011972;28;19920;-77
2022/12/02 13:27:24;;;;;;;;;;;10.40;99.90;;;;;;5011831;28;19909;-78
2022/12/02 13:29:50;;;;;;;;;;;10.40;99.90;;;;;;5011087;28;20010;-78
2022/12/02 13:32:15;;;;;;;;;;;10.40;99.90;;;;;;5010474;28;20356;-77
2022/12/02 13:34:41;;;;;;;;;;;10.30;99.90;;;;;;5009976;28;19921;-78
2022/12/02 13:37:07;;;;;;;;;;;10.40;99.90;;;;;;5011309;28;19921;-78
2022/12/02 13:39:32;;;;;;;;;;;10.40;99.90;;;;;;5011061;28;19916;-78
2022/12/02 13:41:58;;;;;;;;;;;10.40;99.90;;;;;;5011586;28;20350;-78
2022/12/02 13:44:23;;;;;;;;;;;10.40;99.90;;;;;;5011224;28;19979;-78
2022/12/02 13:46:49;;;;;;;;;;;10.40;99.90;;;;;;5010442;28;19925;-78
2022/12/02 13:49:14;;;;;;;;;;;10.40;99.90;;;;;;5011580;28;19921;-77
2022/12/02 13:51:40;;;;;;;;;;;10.40;99.90;;;;;;5011549;28;19913;-77
2022/12/02 13:54:06;;;;;;;;;;;10.40;99.90;;;;;;5011399;28;19944;-77
2022/12/02 13:56:32;;;;;;;;;;;10.40;99.90;;;;;;5011214;28;19914;-78
2022/12/02 13:58:58;;;;;;;;;;;10.40;99.90;;;;;;5011202;28;20316;-78
2022/12/02 14:01:23;;;;;;;;;;;10.40;99.90;;;;;;5011805;28;20343;-77
2022/12/02 14:03:49;;;;;;;;;;;10.40;99.90;;;;;;5009510;28;19999;-78
2022/12/02 14:06:15;;;;;;;;;;;10.40;99.90;;;;;;5011246;28;19921;-78
2022/12/02 14:08:40;;;;;;;;;;;10.30;99.90;;;;;;5011063;28;19921;-78
2022/12/02 14:11:06;;;;;;;;;;;10.30;99.90;;;;;;5009762;28;19933;-78
2022/12/02 14:13:32;;;;;;;;;;;10.40;99.90;;;;;;5010968;28;19914;-78
2022/12/02 14:15:57;;;;;;;;;;;10.40;99.90;;;;;;5010741;28;19916;-78
2022/12/02 14:18:23;;;;;;;;;;;10.40;99.90;;;;;;5011048;28;19944;-78
2022/12/02 14:20:48;;;;;;;;;;;10.30;99.90;;;;;;5009161;28;19925;-77
2022/12/02 14:23:14;;;;;;;;;;;10.30;99.90;;;;;;5010952;28;19909;-79
2022/12/02 14:25:40;;;;;;;;;;;10.30;99.90;;;;;;5011001;28;20240;-78
2022/12/02 14:28:06;;;;;;;;;;;10.30;99.90;;;;;;5010588;28;20020;-79
2022/12/02 14:30:31;;;;;;;;;;;10.30;99.90;;;;;;5010583;28;20289;-82
2022/12/02 14:32:57;;;;;;;;;;;10.30;99.90;;;;;;5010903;28;19916;-79